sensor_id;sensor_type;location;lat;lon;timestamp;P1;durP1;ratioP1;P2;durP2;ratioP2
57105;SDS011;62662;56.788;23.942;2022-08-21T00:00:13;18.70;;;10.85;;
57105;SDS011;62662;56.788;23.942;2022-08-21T00:02:47;22.40;;;12.70;;
57105;SDS011;62662;56.788;23.942;2022-08-21T00:05:18;21.85;;;12.18;;
57105;SDS011;62662;56.788;23.942;2022-08-21T00:07:45;27.27;;;11.50;;
57105;SDS011;62662;56.788;23.942;2022-08-21T00:10:13;20.90;;;11.50;;
57105;SDS011;62662;56.788;23.942;2022-08-21T00:12:41;20.02;;;11.63;;
57105;SDS011;62662;56.788;23.942;2022-08-21T00:15:09;19.77;;;12.60;;
57105;SDS011;62662;56.788;23.942;2022-08-21T00:17:39;23.25;;;11.80;;
57105;SDS011;62662;56.788;23.942;2022-08-21T00:20:08;22.65;;;11.57;;
57105;SDS011;62662;56.788;23.942;2022-08-21T00:22:39;17.63;;;11.25;;
57105;SDS011;62662;56.788;23.942;2022-08-21T00:25:07;26.38;;;11.52;;
57105;SDS011;62662;56.788;23.942;2022-08-21T00:27:35;19.60;;;12.48;;
57105;SDS011;62662;56.788;23.942;2022-08-21T00:30:04;20.60;;;11.93;;
57105;SDS011;62662;56.788;23.942;2022-08-21T00:32:33;20.38;;;12.43;;
57105;SDS011;62662;56.788;23.942;2022-08-21T00:35:00;20.55;;;13.02;;
57105;SDS011;62662;56.788;23.942;2022-08-21T00:37:27;22.02;;;12.55;;
57105;SDS011;62662;56.788;23.942;2022-08-21T00:39:56;25.65;;;13.40;;
57105;SDS011;62662;56.788;23.942;2022-08-21T00:42:23;24.75;;;12.55;;
57105;SDS011;62662;56.788;23.942;2022-08-21T00:44:51;25.60;;;12.98;;
57105;SDS011;62662;56.788;23.942;2022-08-21T00:47:18;27.65;;;13.32;;
57105;SDS011;62662;56.788;23.942;2022-08-21T00:49:46;28.27;;;13.27;;
57105;SDS011;62662;56.788;23.942;2022-08-21T00:52:14;19.80;;;12.63;;
57105;SDS011;62662;56.788;23.942;2022-08-21T00:54:45;18.67;;;11.38;;
57105;SDS011;62662;56.788;23.942;2022-08-21T00:57:26;22.30;;;12.27;;
57105;SDS011;62662;56.788;23.942;2022-08-21T00:59:58;22.83;;;11.40;;
57105;SDS011;62662;56.788;23.942;2022-08-21T01:02:30;19.02;;;10.70;;
57105;SDS011;62662;56.788;23.942;2022-08-21T01:04:57;20.05;;;11.50;;
57105;SDS011;62662;56.788;23.942;2022-08-21T01:07:24;19.35;;;11.45;;
57105;SDS011;62662;56.788;23.942;2022-08-21T01:09:52;17.83;;;10.75;;
57105;SDS011;62662;56.788;23.942;2022-08-21T01:12:20;24.58;;;11.18;;
57105;SDS011;62662;56.788;23.942;2022-08-21T01:14:47;21.70;;;11.10;;
57105;SDS011;62662;56.788;23.942;2022-08-21T01:17:14;23.20;;;12.75;;
57105;SDS011;62662;56.788;23.942;2022-08-21T01:19:43;15.52;;;11.68;;
57105;SDS011;62662;56.788;23.942;2022-08-21T01:22:10;26.58;;;11.77;;
57105;SDS011;62662;56.788;23.942;2022-08-21T01:24:37;16.17;;;11.30;;
57105;SDS011;62662;56.788;23.942;2022-08-21T01:27:04;15.68;;;11.55;;
57105;SDS011;62662;56.788;23.942;2022-08-21T01:32:08;23.90;;;11.85;;
57105;SDS011;62662;56.788;23.942;2022-08-21T01:34:39;21.83;;;12.85;;
57105;SDS011;62662;56.788;23.942;2022-08-21T01:37:08;25.33;;;12.88;;
57105;SDS011;62662;56.788;23.942;2022-08-21T01:39:35;19.23;;;11.85;;
57105;SDS011;62662;56.788;23.942;2022-08-21T01:42:03;28.73;;;12.63;;
57105;SDS011;62662;56.788;23.942;2022-08-21T01:44:31;25.83;;;12.65;;
57105;SDS011;62662;56.788;23.942;2022-08-21T01:46:59;24.33;;;12.55;;
57105;SDS011;62662;56.788;23.942;2022-08-21T01:49:28;20.75;;;12.30;;
57105;SDS011;62662;56.788;23.942;2022-08-21T01:51:55;27.15;;;13.25;;
57105;SDS011;62662;56.788;23.942;2022-08-21T01:54:22;26.17;;;11.90;;
57105;SDS011;62662;56.788;23.942;2022-08-21T01:56:50;22.13;;;11.63;;
57105;SDS011;62662;56.788;23.942;2022-08-21T01:59:19;23.10;;;12.38;;
57105;SDS011;62662;56.788;23.942;2022-08-21T02:01:47;27.33;;;12.13;;
57105;SDS011;62662;56.788;23.942;2022-08-21T02:04:14;20.98;;;10.98;;
57105;SDS011;62662;56.788;23.942;2022-08-21T02:06:42;19.55;;;11.30;;
57105;SDS011;62662;56.788;23.942;2022-08-21T02:09:10;19.05;;;11.20;;
57105;SDS011;62662;56.788;23.942;2022-08-21T02:11:40;24.00;;;12.32;;
57105;SDS011;62662;56.788;23.942;2022-08-21T02:14:08;23.60;;;11.50;;
57105;SDS011;62662;56.788;23.942;2022-08-21T02:16:38;26.65;;;11.05;;
57105;SDS011;62662;56.788;23.942;2022-08-21T02:19:05;20.73;;;11.07;;
57105;SDS011;62662;56.788;23.942;2022-08-21T02:21:33;18.92;;;10.60;;
57105;SDS011;62662;56.788;23.942;2022-08-21T02:24:00;17.77;;;11.48;;
57105;SDS011;62662;56.788;23.942;2022-08-21T02:26:27;19.70;;;10.77;;
57105;SDS011;62662;56.788;23.942;2022-08-21T02:28:54;23.55;;;11.88;;
57105;SDS011;62662;56.788;23.942;2022-08-21T02:31:21;26.17;;;12.35;;
57105;SDS011;62662;56.788;23.942;2022-08-21T02:33:48;23.45;;;11.30;;
57105;SDS011;62662;56.788;23.942;2022-08-21T02:36:15;17.25;;;10.68;;
57105;SDS011;62662;56.788;23.942;2022-08-21T02:38:42;19.80;;;11.65;;
57105;SDS011;62662;56.788;23.942;2022-08-21T02:41:11;23.20;;;11.45;;
57105;SDS011;62662;56.788;23.942;2022-08-21T02:43:40;28.98;;;12.32;;
57105;SDS011;62662;56.788;23.942;2022-08-21T02:46:08;20.73;;;12.10;;
57105;SDS011;62662;56.788;23.942;2022-08-21T02:48:37;25.73;;;11.98;;
57105;SDS011;62662;56.788;23.942;2022-08-21T02:51:08;22.70;;;11.40;;
57105;SDS011;62662;56.788;23.942;2022-08-21T02:53:37;23.10;;;10.90;;
57105;SDS011;62662;56.788;23.942;2022-08-21T02:56:06;22.85;;;10.88;;
57105;SDS011;62662;56.788;23.942;2022-08-21T02:58:36;23.33;;;12.07;;
57105;SDS011;62662;56.788;23.942;2022-08-21T03:01:06;20.58;;;11.45;;
57105;SDS011;62662;56.788;23.942;2022-08-21T03:03:36;23.60;;;11.32;;
57105;SDS011;62662;56.788;23.942;2022-08-21T03:06:06;21.05;;;11.82;;
57105;SDS011;62662;56.788;23.942;2022-08-21T03:08:35;21.52;;;11.75;;
57105;SDS011;62662;56.788;23.942;2022-08-21T03:11:04;25.70;;;11.95;;
57105;SDS011;62662;56.788;23.942;2022-08-21T03:13:33;18.98;;;10.65;;
57105;SDS011;62662;56.788;23.942;2022-08-21T03:16:00;23.02;;;12.57;;
57105;SDS011;62662;56.788;23.942;2022-08-21T03:18:30;27.42;;;11.82;;
57105;SDS011;62662;56.788;23.942;2022-08-21T03:20:57;25.00;;;12.05;;
57105;SDS011;62662;56.788;23.942;2022-08-21T03:23:24;23.55;;;12.55;;
57105;SDS011;62662;56.788;23.942;2022-08-21T03:25:57;24.20;;;11.50;;
57105;SDS011;62662;56.788;23.942;2022-08-21T03:28:25;19.77;;;11.27;;
57105;SDS011;62662;56.788;23.942;2022-08-21T03:30:52;18.33;;;10.95;;
57105;SDS011;62662;56.788;23.942;2022-08-21T03:33:19;29.58;;;12.20;;
57105;SDS011;62662;56.788;23.942;2022-08-21T03:35:53;22.45;;;11.93;;
57105;SDS011;62662;56.788;23.942;2022-08-21T03:38:27;20.50;;;9.93;;
57105;SDS011;62662;56.788;23.942;2022-08-21T03:40:56;19.27;;;10.70;;
57105;SDS011;62662;56.788;23.942;2022-08-21T03:43:24;22.90;;;10.23;;
57105;SDS011;62662;56.788;23.942;2022-08-21T03:45:56;21.25;;;9.90;;
57105;SDS011;62662;56.788;23.942;2022-08-21T03:48:23;29.33;;;9.13;;
57105;SDS011;62662;56.788;23.942;2022-08-21T03:50:51;20.80;;;9.23;;
57105;SDS011;62662;56.788;23.942;2022-08-21T03:53:19;19.45;;;8.73;;
57105;SDS011;62662;56.788;23.942;2022-08-21T03:55:47;19.90;;;8.85;;
57105;SDS011;62662;56.788;23.942;2022-08-21T03:58:17;18.55;;;8.55;;
57105;SDS011;62662;56.788;23.942;2022-08-21T04:00:47;15.93;;;8.50;;
57105;SDS011;62662;56.788;23.942;2022-08-21T04:03:15;17.92;;;8.50;;
57105;SDS011;62662;56.788;23.942;2022-08-21T04:05:43;18.02;;;9.10;;
57105;SDS011;62662;56.788;23.942;2022-08-21T04:08:12;22.55;;;8.38;;
57105;SDS011;62662;56.788;23.942;2022-08-21T04:10:40;16.35;;;8.52;;
57105;SDS011;62662;56.788;23.942;2022-08-21T04:13:09;16.83;;;8.48;;
57105;SDS011;62662;56.788;23.942;2022-08-21T04:15:37;17.20;;;8.20;;
57105;SDS011;62662;56.788;23.942;2022-08-21T04:18:04;18.38;;;7.93;;
57105;SDS011;62662;56.788;23.942;2022-08-21T04:20:32;20.33;;;8.68;;
57105;SDS011;62662;56.788;23.942;2022-08-21T04:23:00;21.13;;;8.00;;
57105;SDS011;62662;56.788;23.942;2022-08-21T04:25:28;20.88;;;7.50;;
57105;SDS011;62662;56.788;23.942;2022-08-21T04:27:55;21.83;;;8.23;;
57105;SDS011;62662;56.788;23.942;2022-08-21T04:30:24;21.50;;;7.05;;
57105;SDS011;62662;56.788;23.942;2022-08-21T04:32:53;17.73;;;7.50;;
57105;SDS011;62662;56.788;23.942;2022-08-21T04:35:22;16.55;;;7.70;;
57105;SDS011;62662;56.788;23.942;2022-08-21T04:37:50;16.92;;;7.82;;
57105;SDS011;62662;56.788;23.942;2022-08-21T04:40:18;16.17;;;6.97;;
57105;SDS011;62662;56.788;23.942;2022-08-21T04:42:50;17.77;;;7.25;;
57105;SDS011;62662;56.788;23.942;2022-08-21T04:45:24;24.88;;;7.00;;
57105;SDS011;62662;56.788;23.942;2022-08-21T04:47:52;13.27;;;7.43;;
57105;SDS011;62662;56.788;23.942;2022-08-21T04:50:27;21.38;;;8.00;;
57105;SDS011;62662;56.788;23.942;2022-08-21T04:52:58;25.63;;;7.68;;
57105;SDS011;62662;56.788;23.942;2022-08-21T04:55:26;15.90;;;6.57;;
57105;SDS011;62662;56.788;23.942;2022-08-21T04:57:54;20.58;;;6.82;;
57105;SDS011;62662;56.788;23.942;2022-08-21T05:00:23;19.70;;;7.15;;
57105;SDS011;62662;56.788;23.942;2022-08-21T05:02:52;18.15;;;7.32;;
57105;SDS011;62662;56.788;23.942;2022-08-21T05:05:23;19.90;;;7.25;;
57105;SDS011;62662;56.788;23.942;2022-08-21T05:07:51;13.20;;;6.80;;
57105;SDS011;62662;56.788;23.942;2022-08-21T05:10:19;14.95;;;6.72;;
57105;SDS011;62662;56.788;23.942;2022-08-21T05:12:46;19.05;;;7.63;;
57105;SDS011;62662;56.788;23.942;2022-08-21T05:15:14;16.45;;;6.57;;
57105;SDS011;62662;56.788;23.942;2022-08-21T05:17:43;20.73;;;7.22;;
57105;SDS011;62662;56.788;23.942;2022-08-21T05:20:27;14.20;;;6.45;;
57105;SDS011;62662;56.788;23.942;2022-08-21T05:22:54;18.85;;;6.60;;
57105;SDS011;62662;56.788;23.942;2022-08-21T05:25:22;15.55;;;6.70;;
57105;SDS011;62662;56.788;23.942;2022-08-21T05:27:49;13.95;;;6.63;;
57105;SDS011;62662;56.788;23.942;2022-08-21T05:30:17;17.05;;;6.38;;
57105;SDS011;62662;56.788;23.942;2022-08-21T05:32:46;19.52;;;6.60;;
57105;SDS011;62662;56.788;23.942;2022-08-21T05:35:16;19.65;;;6.78;;
57105;SDS011;62662;56.788;23.942;2022-08-21T05:37:43;18.58;;;6.45;;
57105;SDS011;62662;56.788;23.942;2022-08-21T05:40:10;17.50;;;6.70;;
57105;SDS011;62662;56.788;23.942;2022-08-21T05:42:48;17.85;;;6.57;;
57105;SDS011;62662;56.788;23.942;2022-08-21T05:45:21;15.50;;;6.38;;
57105;SDS011;62662;56.788;23.942;2022-08-21T05:48:13;15.25;;;6.65;;
57105;SDS011;62662;56.788;23.942;2022-08-21T05:50:43;16.98;;;6.38;;
57105;SDS011;62662;56.788;23.942;2022-08-21T05:53:11;20.05;;;6.78;;
57105;SDS011;62662;56.788;23.942;2022-08-21T05:55:40;17.00;;;6.20;;
57105;SDS011;62662;56.788;23.942;2022-08-21T05:58:15;13.48;;;5.82;;
57105;SDS011;62662;56.788;23.942;2022-08-21T06:00:47;20.13;;;6.03;;
57105;SDS011;62662;56.788;23.942;2022-08-21T06:03:22;17.67;;;6.93;;
57105;SDS011;62662;56.788;23.942;2022-08-21T06:05:51;17.23;;;6.32;;
57105;SDS011;62662;56.788;23.942;2022-08-21T06:08:19;20.10;;;6.32;;
57105;SDS011;62662;56.788;23.942;2022-08-21T06:10:47;13.13;;;5.72;;
57105;SDS011;62662;56.788;23.942;2022-08-21T06:13:16;15.18;;;6.72;;
57105;SDS011;62662;56.788;23.942;2022-08-21T06:15:45;15.20;;;5.90;;
57105;SDS011;62662;56.788;23.942;2022-08-21T06:18:13;20.55;;;6.93;;
57105;SDS011;62662;56.788;23.942;2022-08-21T06:20:41;14.75;;;5.47;;
57105;SDS011;62662;56.788;23.942;2022-08-21T06:23:08;11.07;;;6.28;;
57105;SDS011;62662;56.788;23.942;2022-08-21T06:25:35;21.08;;;7.10;;
57105;SDS011;62662;56.788;23.942;2022-08-21T06:28:03;17.80;;;6.70;;
57105;SDS011;62662;56.788;23.942;2022-08-21T06:30:32;21.23;;;6.88;;
57105;SDS011;62662;56.788;23.942;2022-08-21T06:33:00;14.57;;;6.95;;
57105;SDS011;62662;56.788;23.942;2022-08-21T06:35:28;21.08;;;7.53;;
57105;SDS011;62662;56.788;23.942;2022-08-21T06:37:56;23.67;;;6.90;;
57105;SDS011;62662;56.788;23.942;2022-08-21T06:40:24;16.55;;;6.65;;
57105;SDS011;62662;56.788;23.942;2022-08-21T06:42:55;11.88;;;5.65;;
57105;SDS011;62662;56.788;23.942;2022-08-21T06:45:24;17.23;;;6.93;;
57105;SDS011;62662;56.788;23.942;2022-08-21T06:47:57;20.17;;;7.05;;
57105;SDS011;62662;56.788;23.942;2022-08-21T06:50:24;15.98;;;6.78;;
57105;SDS011;62662;56.788;23.942;2022-08-21T06:52:58;14.02;;;6.35;;
57105;SDS011;62662;56.788;23.942;2022-08-21T06:55:52;16.30;;;6.28;;
57105;SDS011;62662;56.788;23.942;2022-08-21T06:58:19;17.55;;;6.30;;
57105;SDS011;62662;56.788;23.942;2022-08-21T07:00:47;15.48;;;6.10;;
57105;SDS011;62662;56.788;23.942;2022-08-21T07:03:17;17.25;;;6.60;;
57105;SDS011;62662;56.788;23.942;2022-08-21T07:05:48;15.65;;;6.30;;
57105;SDS011;62662;56.788;23.942;2022-08-21T07:08:16;16.95;;;5.72;;
57105;SDS011;62662;56.788;23.942;2022-08-21T07:10:44;14.82;;;6.63;;
57105;SDS011;62662;56.788;23.942;2022-08-21T07:13:12;21.85;;;6.45;;
57105;SDS011;62662;56.788;23.942;2022-08-21T07:15:39;15.05;;;5.93;;
57105;SDS011;62662;56.788;23.942;2022-08-21T07:18:06;19.90;;;6.70;;
57105;SDS011;62662;56.788;23.942;2022-08-21T07:20:33;22.73;;;6.90;;
57105;SDS011;62662;56.788;23.942;2022-08-21T07:23:03;20.65;;;7.07;;
57105;SDS011;62662;56.788;23.942;2022-08-21T07:25:33;14.00;;;6.00;;
57105;SDS011;62662;56.788;23.942;2022-08-21T07:28:00;13.13;;;6.15;;
57105;SDS011;62662;56.788;23.942;2022-08-21T07:30:28;14.63;;;5.55;;
57105;SDS011;62662;56.788;23.942;2022-08-21T07:32:55;12.77;;;5.95;;
57105;SDS011;62662;56.788;23.942;2022-08-21T07:35:23;14.27;;;6.65;;
57105;SDS011;62662;56.788;23.942;2022-08-21T07:37:51;13.90;;;6.38;;
57105;SDS011;62662;56.788;23.942;2022-08-21T07:40:18;17.23;;;6.13;;
57105;SDS011;62662;56.788;23.942;2022-08-21T07:42:46;16.92;;;6.10;;
57105;SDS011;62662;56.788;23.942;2022-08-21T07:45:18;12.02;;;5.45;;
57105;SDS011;62662;56.788;23.942;2022-08-21T07:47:47;16.83;;;6.95;;
57105;SDS011;62662;56.788;23.942;2022-08-21T07:50:20;14.68;;;6.35;;
57105;SDS011;62662;56.788;23.942;2022-08-21T07:52:47;20.98;;;5.93;;
57105;SDS011;62662;56.788;23.942;2022-08-21T07:55:16;17.50;;;5.93;;
57105;SDS011;62662;56.788;23.942;2022-08-21T07:57:45;17.63;;;6.07;;
57105;SDS011;62662;56.788;23.942;2022-08-21T08:00:17;15.05;;;5.63;;
57105;SDS011;62662;56.788;23.942;2022-08-21T08:02:47;16.60;;;5.35;;
57105;SDS011;62662;56.788;23.942;2022-08-21T08:05:19;17.33;;;5.85;;
57105;SDS011;62662;56.788;23.942;2022-08-21T08:07:48;12.40;;;5.53;;
57105;SDS011;62662;56.788;23.942;2022-08-21T08:10:15;14.27;;;5.07;;
57105;SDS011;62662;56.788;23.942;2022-08-21T08:12:43;12.48;;;5.63;;
57105;SDS011;62662;56.788;23.942;2022-08-21T08:15:12;16.10;;;6.10;;
57105;SDS011;62662;56.788;23.942;2022-08-21T08:17:43;16.23;;;5.95;;
57105;SDS011;62662;56.788;23.942;2022-08-21T08:20:10;13.90;;;6.05;;
57105;SDS011;62662;56.788;23.942;2022-08-21T08:22:39;14.65;;;5.40;;
57105;SDS011;62662;56.788;23.942;2022-08-21T08:25:07;16.67;;;5.72;;
57105;SDS011;62662;56.788;23.942;2022-08-21T08:27:36;14.77;;;5.28;;
57105;SDS011;62662;56.788;23.942;2022-08-21T08:30:05;16.55;;;5.75;;
57105;SDS011;62662;56.788;23.942;2022-08-21T08:32:34;14.65;;;6.07;;
57105;SDS011;62662;56.788;23.942;2022-08-21T08:35:02;15.65;;;5.47;;
57105;SDS011;62662;56.788;23.942;2022-08-21T08:37:30;13.70;;;5.35;;
57105;SDS011;62662;56.788;23.942;2022-08-21T08:39:59;12.40;;;5.95;;
57105;SDS011;62662;56.788;23.942;2022-08-21T08:42:32;16.90;;;5.90;;
57105;SDS011;62662;56.788;23.942;2022-08-21T08:47:44;14.73;;;5.32;;
57105;SDS011;62662;56.788;23.942;2022-08-21T08:50:24;12.10;;;5.05;;
57105;SDS011;62662;56.788;23.942;2022-08-21T08:53:02;13.25;;;4.70;;
57105;SDS011;62662;56.788;23.942;2022-08-21T08:55:39;13.73;;;5.55;;
57105;SDS011;62662;56.788;23.942;2022-08-21T08:58:12;15.05;;;6.18;;
57105;SDS011;62662;56.788;23.942;2022-08-21T09:00:53;17.73;;;5.88;;
57105;SDS011;62662;56.788;23.942;2022-08-21T09:03:24;15.18;;;5.30;;
57105;SDS011;62662;56.788;23.942;2022-08-21T09:06:03;14.25;;;5.05;;
57105;SDS011;62662;56.788;23.942;2022-08-21T09:11:37;11.32;;;4.95;;
57105;SDS011;62662;56.788;23.942;2022-08-21T09:16:55;17.35;;;5.82;;
57105;SDS011;62662;56.788;23.942;2022-08-21T09:28:40;15.05;;;4.88;;
57105;SDS011;62662;56.788;23.942;2022-08-21T09:31:27;9.82;;;4.45;;
57105;SDS011;62662;56.788;23.942;2022-08-21T09:33:59;21.45;;;5.07;;
57105;SDS011;62662;56.788;23.942;2022-08-21T09:39:02;16.92;;;4.35;;
57105;SDS011;62662;56.788;23.942;2022-08-21T09:41:32;11.35;;;4.85;;
57105;SDS011;62662;56.788;23.942;2022-08-21T09:44:05;17.38;;;4.15;;
57105;SDS011;62662;56.788;23.942;2022-08-21T09:46:34;10.27;;;4.28;;
57105;SDS011;62662;56.788;23.942;2022-08-21T09:49:03;10.77;;;4.22;;
57105;SDS011;62662;56.788;23.942;2022-08-21T09:51:33;13.20;;;4.82;;
57105;SDS011;62662;56.788;23.942;2022-08-21T09:56:37;10.40;;;4.38;;
57105;SDS011;62662;56.788;23.942;2022-08-21T09:59:36;14.20;;;4.32;;
57105;SDS011;62662;56.788;23.942;2022-08-21T10:05:35;13.20;;;4.75;;
57105;SDS011;62662;56.788;23.942;2022-08-21T10:07:54;11.50;;;4.38;;
57105;SDS011;62662;56.788;23.942;2022-08-21T10:10:24;9.30;;;4.32;;
57105;SDS011;62662;56.788;23.942;2022-08-21T10:18:40;9.27;;;4.00;;
57105;SDS011;62662;56.788;23.942;2022-08-21T10:21:23;17.88;;;4.70;;
57105;SDS011;62662;56.788;23.942;2022-08-21T10:32:21;14.85;;;4.40;;
57105;SDS011;62662;56.788;23.942;2022-08-21T10:44:39;8.07;;;3.47;;
57105;SDS011;62662;56.788;23.942;2022-08-21T10:50:12;12.05;;;3.72;;
57105;SDS011;62662;56.788;23.942;2022-08-21T10:55:41;11.65;;;3.63;;
57105;SDS011;62662;56.788;23.942;2022-08-21T10:58:16;10.55;;;4.03;;
57105;SDS011;62662;56.788;23.942;2022-08-21T11:01:12;7.97;;;4.10;;
57105;SDS011;62662;56.788;23.942;2022-08-21T11:04:12;12.40;;;4.25;;
57105;SDS011;62662;56.788;23.942;2022-08-21T11:06:47;8.40;;;3.78;;
57105;SDS011;62662;56.788;23.942;2022-08-21T11:09:20;13.75;;;4.22;;
57105;SDS011;62662;56.788;23.942;2022-08-21T11:11:52;12.85;;;3.88;;
57105;SDS011;62662;56.788;23.942;2022-08-21T11:14:52;7.85;;;3.95;;
57105;SDS011;62662;56.788;23.942;2022-08-21T11:17:27;10.98;;;4.47;;
57105;SDS011;62662;56.788;23.942;2022-08-21T11:20:15;10.93;;;4.38;;
57105;SDS011;62662;56.788;23.942;2022-08-21T11:22:50;13.30;;;4.05;;
57105;SDS011;62662;56.788;23.942;2022-08-21T11:36:36;14.57;;;4.68;;
57105;SDS011;62662;56.788;23.942;2022-08-21T11:39:26;13.07;;;4.10;;
57105;SDS011;62662;56.788;23.942;2022-08-21T11:42:07;14.68;;;4.20;;
57105;SDS011;62662;56.788;23.942;2022-08-21T11:44:56;10.18;;;5.03;;
57105;SDS011;62662;56.788;23.942;2022-08-21T11:50:16;20.30;;;4.53;;
57105;SDS011;62662;56.788;23.942;2022-08-21T11:53:07;12.10;;;4.43;;
57105;SDS011;62662;56.788;23.942;2022-08-21T11:55:45;15.25;;;4.82;;
57105;SDS011;62662;56.788;23.942;2022-08-21T11:58:18;16.20;;;5.00;;
57105;SDS011;62662;56.788;23.942;2022-08-21T12:00:53;11.88;;;4.30;;
57105;SDS011;62662;56.788;23.942;2022-08-21T12:03:25;14.00;;;4.50;;
57105;SDS011;62662;56.788;23.942;2022-08-21T12:06:04;15.77;;;5.38;;
57105;SDS011;62662;56.788;23.942;2022-08-21T12:08:38;15.20;;;4.72;;
57105;SDS011;62662;56.788;23.942;2022-08-21T12:11:09;17.25;;;5.25;;
57105;SDS011;62662;56.788;23.942;2022-08-21T12:16:41;13.70;;;4.63;;
57105;SDS011;62662;56.788;23.942;2022-08-21T12:21:48;16.02;;;4.72;;
57105;SDS011;62662;56.788;23.942;2022-08-21T12:24:19;16.13;;;4.60;;
57105;SDS011;62662;56.788;23.942;2022-08-21T12:27:00;9.82;;;4.25;;
57105;SDS011;62662;56.788;23.942;2022-08-21T12:29:45;15.82;;;4.82;;
57105;SDS011;62662;56.788;23.942;2022-08-21T12:35:25;15.93;;;4.47;;
57105;SDS011;62662;56.788;23.942;2022-08-21T12:40:37;18.58;;;4.55;;
57105;SDS011;62662;56.788;23.942;2022-08-21T12:43:11;11.75;;;4.70;;
57105;SDS011;62662;56.788;23.942;2022-08-21T12:45:44;18.45;;;4.70;;
57105;SDS011;62662;56.788;23.942;2022-08-21T12:48:21;12.02;;;3.83;;
57105;SDS011;62662;56.788;23.942;2022-08-21T12:53:37;11.73;;;4.75;;
57105;SDS011;62662;56.788;23.942;2022-08-21T12:56:13;18.90;;;5.10;;
57105;SDS011;62662;56.788;23.942;2022-08-21T12:58:46;11.60;;;4.85;;
57105;SDS011;62662;56.788;23.942;2022-08-21T13:01:24;12.00;;;4.47;;
57105;SDS011;62662;56.788;23.942;2022-08-21T13:03:57;11.40;;;4.25;;
57105;SDS011;62662;56.788;23.942;2022-08-21T13:06:31;20.48;;;5.20;;
57105;SDS011;62662;56.788;23.942;2022-08-21T13:09:06;11.35;;;4.55;;
57105;SDS011;62662;56.788;23.942;2022-08-21T13:11:37;15.18;;;5.13;;
57105;SDS011;62662;56.788;23.942;2022-08-21T13:14:09;17.42;;;5.65;;
57105;SDS011;62662;56.788;23.942;2022-08-21T13:16:58;22.67;;;5.85;;
57105;SDS011;62662;56.788;23.942;2022-08-21T13:19:29;17.70;;;4.60;;
57105;SDS011;62662;56.788;23.942;2022-08-21T13:21:57;25.13;;;5.47;;
57105;SDS011;62662;56.788;23.942;2022-08-21T13:24:25;17.50;;;4.90;;
57105;SDS011;62662;56.788;23.942;2022-08-21T13:27:16;14.80;;;5.68;;
57105;SDS011;62662;56.788;23.942;2022-08-21T13:29:45;17.83;;;5.85;;
57105;SDS011;62662;56.788;23.942;2022-08-21T13:32:21;12.43;;;4.78;;
57105;SDS011;62662;56.788;23.942;2022-08-21T13:34:58;19.08;;;4.65;;
57105;SDS011;62662;56.788;23.942;2022-08-21T13:37:34;16.98;;;4.80;;
57105;SDS011;62662;56.788;23.942;2022-08-21T13:40:02;15.48;;;4.78;;
57105;SDS011;62662;56.788;23.942;2022-08-21T13:42:32;14.60;;;4.72;;
57105;SDS011;62662;56.788;23.942;2022-08-21T13:45:00;22.20;;;4.95;;
57105;SDS011;62662;56.788;23.942;2022-08-21T13:47:26;25.60;;;6.10;;
57105;SDS011;62662;56.788;23.942;2022-08-21T13:49:53;23.02;;;5.03;;
57105;SDS011;62662;56.788;23.942;2022-08-21T13:52:25;22.52;;;5.40;;
57105;SDS011;62662;56.788;23.942;2022-08-21T13:54:57;14.50;;;5.18;;
57105;SDS011;62662;56.788;23.942;2022-08-21T13:57:27;17.30;;;4.50;;
57105;SDS011;62662;56.788;23.942;2022-08-21T14:02:52;23.52;;;5.53;;
57105;SDS011;62662;56.788;23.942;2022-08-21T14:05:26;12.75;;;5.75;;
57105;SDS011;62662;56.788;23.942;2022-08-21T14:08:10;12.40;;;4.97;;
57105;SDS011;62662;56.788;23.942;2022-08-21T14:10:44;25.48;;;5.80;;
57105;SDS011;62662;56.788;23.942;2022-08-21T14:16:10;17.67;;;5.00;;
57105;SDS011;62662;56.788;23.942;2022-08-21T14:18:46;16.02;;;5.07;;
57105;SDS011;62662;56.788;23.942;2022-08-21T14:21:41;12.93;;;5.15;;
57105;SDS011;62662;56.788;23.942;2022-08-21T14:24:14;20.10;;;5.90;;
57105;SDS011;62662;56.788;23.942;2022-08-21T14:27:04;16.75;;;5.57;;
57105;SDS011;62662;56.788;23.942;2022-08-21T14:29:36;19.05;;;5.43;;
57105;SDS011;62662;56.788;23.942;2022-08-21T14:32:16;19.98;;;5.57;;
57105;SDS011;62662;56.788;23.942;2022-08-21T14:34:51;20.23;;;5.55;;
57105;SDS011;62662;56.788;23.942;2022-08-21T14:37:20;17.75;;;5.32;;
57105;SDS011;62662;56.788;23.942;2022-08-21T14:39:47;18.50;;;6.05;;
57105;SDS011;62662;56.788;23.942;2022-08-21T14:42:14;13.43;;;5.85;;
57105;SDS011;62662;56.788;23.942;2022-08-21T14:44:42;24.65;;;6.90;;
57105;SDS011;62662;56.788;23.942;2022-08-21T14:47:09;16.98;;;6.30;;
57105;SDS011;62662;56.788;23.942;2022-08-21T14:49:37;31.83;;;6.35;;
57105;SDS011;62662;56.788;23.942;2022-08-21T14:52:04;14.80;;;5.68;;
57105;SDS011;62662;56.788;23.942;2022-08-21T14:54:31;20.48;;;6.00;;
57105;SDS011;62662;56.788;23.942;2022-08-21T14:57:04;23.63;;;6.07;;
57105;SDS011;62662;56.788;23.942;2022-08-21T14:59:35;18.77;;;5.78;;
57105;SDS011;62662;56.788;23.942;2022-08-21T15:02:04;22.00;;;5.65;;
57105;SDS011;62662;56.788;23.942;2022-08-21T15:04:33;19.90;;;6.30;;
57105;SDS011;62662;56.788;23.942;2022-08-21T15:07:01;21.27;;;6.13;;
57105;SDS011;62662;56.788;23.942;2022-08-21T15:09:28;25.60;;;6.30;;
57105;SDS011;62662;56.788;23.942;2022-08-21T15:11:56;32.95;;;7.18;;
57105;SDS011;62662;56.788;23.942;2022-08-21T15:14:26;37.35;;;7.32;;
57105;SDS011;62662;56.788;23.942;2022-08-21T15:16:55;32.50;;;6.90;;
57105;SDS011;62662;56.788;23.942;2022-08-21T15:19:23;28.05;;;6.47;;
57105;SDS011;62662;56.788;23.942;2022-08-21T15:21:50;25.20;;;6.30;;
57105;SDS011;62662;56.788;23.942;2022-08-21T15:24:17;27.98;;;6.88;;
57105;SDS011;62662;56.788;23.942;2022-08-21T15:26:44;28.10;;;6.35;;
57105;SDS011;62662;56.788;23.942;2022-08-21T15:29:12;17.15;;;5.78;;
57105;SDS011;62662;56.788;23.942;2022-08-21T15:31:52;18.10;;;5.70;;
57105;SDS011;62662;56.788;23.942;2022-08-21T15:34:23;13.07;;;5.75;;
57105;SDS011;62662;56.788;23.942;2022-08-21T15:36:57;19.05;;;5.60;;
57105;SDS011;62662;56.788;23.942;2022-08-21T15:39:28;20.83;;;5.82;;
57105;SDS011;62662;56.788;23.942;2022-08-21T15:42:02;17.77;;;6.93;;
57105;SDS011;62662;56.788;23.942;2022-08-21T15:44:36;26.67;;;6.40;;
57105;SDS011;62662;56.788;23.942;2022-08-21T15:47:42;19.52;;;6.70;;
57105;SDS011;62662;56.788;23.942;2022-08-21T15:50:04;21.08;;;6.53;;
57105;SDS011;62662;56.788;23.942;2022-08-21T15:52:35;20.42;;;5.63;;
57105;SDS011;62662;56.788;23.942;2022-08-21T15:55:03;20.80;;;6.05;;
57105;SDS011;62662;56.788;23.942;2022-08-21T15:57:31;17.80;;;6.38;;
57105;SDS011;62662;56.788;23.942;2022-08-21T16:00:05;14.85;;;6.55;;
57105;SDS011;62662;56.788;23.942;2022-08-21T16:02:43;15.57;;;6.35;;
57105;SDS011;62662;56.788;23.942;2022-08-21T16:05:15;15.43;;;6.32;;
57105;SDS011;62662;56.788;23.942;2022-08-21T16:07:45;22.65;;;6.40;;
57105;SDS011;62662;56.788;23.942;2022-08-21T16:10:14;15.27;;;5.80;;
57105;SDS011;62662;56.788;23.942;2022-08-21T16:12:48;17.42;;;6.50;;